createdAt,value
2018-03-29T00:00:33.485Z,3.40
2018-03-29T00:03:00.998Z,3.30
2018-03-29T00:05:29.309Z,3.20
2018-03-29T00:07:56.880Z,3.57
2018-03-29T00:10:25.163Z,2.80
2018-03-29T00:12:52.677Z,3.07
2018-03-29T00:15:20.223Z,3.57
2018-03-29T00:17:47.749Z,3.07
2018-03-29T00:20:15.308Z,3.43
2018-03-29T00:22:42.825Z,3.10
2018-03-29T00:25:11.133Z,3.10
2018-03-29T00:27:38.645Z,2.90
2018-03-29T00:30:06.183Z,3.10
2018-03-29T00:32:33.706Z,3.23
2018-03-29T00:35:01.279Z,3.90
2018-03-29T00:37:28.797Z,3.77
2018-03-29T00:39:57.136Z,3.80
2018-03-29T00:42:24.658Z,4.17
2018-03-29T00:44:52.177Z,4.03
2018-03-29T00:47:19.725Z,3.07
2018-03-29T00:49:47.245Z,3.33
2018-03-29T00:52:14.790Z,3.70
2018-03-29T00:54:42.304Z,3.10
2018-03-29T00:57:09.847Z,3.17
2018-03-29T00:59:37.366Z,3.20
2018-03-29T01:02:05.678Z,3.57
2018-03-29T01:04:33.201Z,2.63
2018-03-29T01:07:00.741Z,2.80
2018-03-29T01:09:28.262Z,2.80
2018-03-29T01:11:55.807Z,3.47
2018-03-29T01:14:23.318Z,3.10
2018-03-29T01:16:50.862Z,3.13
2018-03-29T01:19:18.381Z,2.80
2018-03-29T01:21:45.920Z,2.40
2018-03-29T01:24:14.194Z,2.77
2018-03-29T01:26:42.506Z,2.40
2018-03-29T01:29:10.022Z,2.70
2018-03-29T01:31:38.342Z,2.60
2018-03-29T01:34:05.861Z,3.07
2018-03-29T01:36:34.151Z,2.83
2018-03-29T01:39:02.457Z,2.90
2018-03-29T01:41:29.981Z,2.80
2018-03-29T01:43:58.292Z,2.80
2018-03-29T01:46:25.813Z,2.60
2018-03-29T01:48:54.114Z,2.50
2018-03-29T01:51:21.629Z,1.80
2018-03-29T01:53:49.166Z,2.83
2018-03-29T01:56:16.694Z,2.87
2018-03-29T01:58:44.237Z,2.30
2018-03-29T02:01:12.518Z,2.30
2018-03-29T02:03:40.826Z,1.93
2018-03-29T02:06:08.342Z,2.20
2018-03-29T02:08:36.653Z,2.23
2018-03-29T02:11:04.178Z,1.70
2018-03-29T02:13:31.723Z,2.55
2018-03-29T02:15:59.245Z,1.67
2018-03-29T02:18:26.802Z,1.83
2018-03-29T02:20:54.322Z,1.90
2018-03-29T02:23:22.625Z,1.80
2018-03-29T02:25:50.146Z,2.03
2018-03-29T02:28:17.690Z,2.20
2018-03-29T02:30:45.210Z,2.63
2018-03-29T02:33:12.760Z,2.37
2018-03-29T02:35:40.285Z,2.27
2018-03-29T02:38:07.793Z,2.43
2018-03-29T02:40:35.339Z,2.17
2018-03-29T02:43:02.865Z,2.23
2018-03-29T02:45:30.409Z,2.03
2018-03-29T02:47:57.940Z,2.40
2018-03-29T02:50:25.486Z,2.40
2018-03-29T02:52:53.009Z,2.37
2018-03-29T02:55:20.545Z,3.57
2018-03-29T02:57:48.067Z,3.70
2018-03-29T03:00:15.616Z,2.20
2018-03-29T03:02:43.145Z,2.60
2018-03-29T03:05:10.695Z,3.40
2018-03-29T03:07:38.214Z,2.93
2018-03-29T03:10:05.758Z,2.80
2018-03-29T03:12:33.276Z,5.07
2018-03-29T03:15:00.822Z,3.47
2018-03-29T03:17:28.344Z,5.07
2018-03-29T03:19:55.908Z,3.93
2018-03-29T03:22:23.425Z,2.60
2018-03-29T03:24:50.967Z,3.57
2018-03-29T03:27:18.489Z,2.30
2018-03-29T03:29:46.038Z,2.30
2018-03-29T03:32:13.563Z,2.37
2018-03-29T03:34:41.121Z,2.63
2018-03-29T03:37:08.649Z,2.50
2018-03-29T03:39:36.185Z,3.20
2018-03-29T03:42:03.719Z,2.77
2018-03-29T03:44:32.002Z,2.60
2018-03-29T03:47:00.310Z,2.40
2018-03-29T03:49:27.831Z,3.20
2018-03-29T03:51:56.143Z,2.87
2018-03-29T03:54:23.661Z,3.03
2018-03-29T03:56:51.211Z,4.00
2018-03-29T03:59:18.729Z,4.97
2018-03-29T04:01:46.270Z,3.33
2018-03-29T04:04:14.610Z,3.20
2018-03-29T04:06:42.142Z,2.87
2018-03-29T04:09:09.654Z,2.97
2018-03-29T04:11:38.027Z,2.13
2018-03-29T04:14:06.332Z,2.67
2018-03-29T04:16:34.633Z,4.13
2018-03-29T04:19:02.145Z,3.57
2018-03-29T04:21:30.453Z,3.30
2018-03-29T04:23:57.975Z,3.67
2018-03-29T04:26:25.517Z,4.40
2018-03-29T04:28:53.033Z,2.90
2018-03-29T04:31:20.579Z,3.60
2018-03-29T04:33:48.858Z,3.37
2018-03-29T04:36:16.406Z,3.23
2018-03-29T04:38:44.753Z,3.70
2018-03-29T04:41:12.298Z,4.73
2018-03-29T04:43:39.820Z,5.10
2018-03-29T04:46:07.351Z,5.30
2018-03-29T04:48:34.893Z,5.60
2018-03-29T04:51:02.413Z,6.23
2018-03-29T04:53:29.961Z,4.67
2018-03-29T04:55:57.478Z,4.90
2018-03-29T04:58:25.022Z,5.70
2018-03-29T05:00:52.551Z,4.83
2018-03-29T05:03:20.111Z,5.40
2018-03-29T05:05:47.637Z,5.47
2018-03-29T05:08:15.957Z,6.27
2018-03-29T05:10:43.486Z,5.67
2018-03-29T05:13:11.798Z,6.63
2018-03-29T05:15:39.334Z,7.43
2018-03-29T05:18:06.884Z,5.63
2018-03-29T05:20:35.169Z,7.07
2018-03-29T05:23:02.718Z,4.53
2018-03-29T05:25:34.953Z,5.87
2018-03-29T05:28:02.493Z,7.57
2018-03-29T05:30:30.018Z,5.67
2018-03-29T05:32:57.561Z,7.87
2018-03-29T05:35:25.841Z,6.83
2018-03-29T05:37:54.145Z,9.63
2018-03-29T05:40:21.662Z,6.47
2018-03-29T05:42:49.209Z,6.90
2018-03-29T05:45:16.755Z,6.50
2018-03-29T05:47:44.271Z,5.73
2018-03-29T05:50:12.617Z,7.13
2018-03-29T05:52:40.131Z,8.17
2018-03-29T05:55:07.678Z,6.40
2018-03-29T05:57:35.210Z,6.77
2018-03-29T06:00:03.526Z,7.47
2018-03-29T06:02:31.049Z,5.13
2018-03-29T06:04:59.363Z,7.07
2018-03-29T06:07:26.885Z,10.30
2018-03-29T06:09:55.198Z,8.37
2018-03-29T06:12:22.721Z,6.40
2018-03-29T06:14:50.265Z,6.67
2018-03-29T06:17:23.595Z,9.23
2018-03-29T06:19:51.901Z,7.57
2018-03-29T06:22:19.425Z,8.90
2018-03-29T06:24:47.737Z,8.13
2018-03-29T06:27:15.249Z,8.10
2018-03-29T06:29:42.785Z,9.80
2018-03-29T06:32:10.309Z,12.53
2018-03-29T06:34:37.849Z,9.47
2018-03-29T06:37:06.142Z,11.13
2018-03-29T06:39:33.681Z,9.37
2018-03-29T06:42:01.970Z,10.17
2018-03-29T06:44:30.249Z,10.70
2018-03-29T06:46:57.856Z,10.13
2018-03-29T06:49:25.346Z,11.37
2018-03-29T06:51:52.893Z,13.43
2018-03-29T06:54:20.415Z,10.07
2018-03-29T06:56:47.959Z,8.47
2018-03-29T06:59:15.482Z,11.73
2018-03-29T07:01:43.025Z,10.97
2018-03-29T07:04:10.545Z,13.47
2018-03-29T07:06:38.089Z,12.30
2018-03-29T07:09:06.371Z,11.87
2018-03-29T07:11:33.925Z,11.43
2018-03-29T07:14:02.213Z,9.77
2018-03-29T07:16:29.757Z,13.23
2018-03-29T07:18:58.049Z,11.93
2018-03-29T07:21:25.594Z,13.53
2018-03-29T07:23:53.882Z,13.00
2018-03-29T07:26:21.430Z,12.37
2018-03-29T07:28:49.722Z,10.50
2018-03-29T07:31:17.269Z,12.57
2018-03-29T07:33:45.553Z,12.47
2018-03-29T07:36:13.870Z,12.97
2018-03-29T07:38:41.389Z,14.07
2018-03-29T07:41:09.671Z,12.57
2018-03-29T07:43:37.977Z,10.50
2018-03-29T07:46:05.497Z,12.97
2018-03-29T07:48:33.806Z,11.97
2018-03-29T07:51:01.329Z,13.27
2018-03-29T07:53:28.869Z,13.53
2018-03-29T07:55:57.145Z,14.60
2018-03-29T07:58:24.686Z,15.80
2018-03-29T08:00:52.211Z,14.93
2018-03-29T08:03:19.760Z,12.87
2018-03-29T08:05:48.046Z,10.33
2018-03-29T08:08:16.357Z,13.23
2018-03-29T08:10:43.874Z,16.20
2018-03-29T08:13:12.182Z,12.03
2018-03-29T08:15:39.710Z,13.90
2018-03-29T08:18:08.023Z,13.50
2018-03-29T08:20:35.538Z,11.07
2018-03-29T08:23:03.082Z,11.03
2018-03-29T08:25:30.605Z,13.30
2018-03-29T08:27:58.142Z,14.73
2018-03-29T08:30:25.662Z,14.23
2018-03-29T08:32:53.212Z,12.90
2018-03-29T08:35:20.734Z,14.57
2018-03-29T08:37:48.274Z,15.90
2018-03-29T08:40:16.614Z,15.80
2018-03-29T08:42:44.179Z,16.43
2018-03-29T08:45:11.744Z,14.60
2018-03-29T08:47:39.267Z,15.70
2018-03-29T08:50:06.805Z,19.33
2018-03-29T08:52:34.330Z,15.90
2018-03-29T08:55:01.882Z,17.43
2018-03-29T08:57:29.400Z,18.40
2018-03-29T08:59:56.947Z,17.57
2018-03-29T09:02:24.475Z,19.80
2018-03-29T09:04:52.013Z,17.67
2018-03-29T09:07:19.532Z,17.63
2018-03-29T09:09:47.087Z,17.03
2018-03-29T09:12:14.609Z,19.40
2018-03-29T09:14:42.163Z,17.80
2018-03-29T09:17:09.687Z,24.43
2018-03-29T09:19:37.238Z,22.60
2018-03-29T09:22:04.766Z,19.50
2018-03-29T09:24:33.086Z,20.30
2018-03-29T09:27:00.613Z,20.87
2018-03-29T09:29:28.927Z,18.80
2018-03-29T09:31:56.509Z,21.40
2018-03-29T09:34:24.062Z,21.77
2018-03-29T09:36:51.594Z,19.87
2018-03-29T09:39:19.158Z,19.87
2018-03-29T09:41:46.680Z,20.87
2018-03-29T09:44:14.982Z,19.57
2018-03-29T09:46:42.538Z,20.60
2018-03-29T09:49:10.069Z,20.37
2018-03-29T09:51:37.618Z,18.23
2018-03-29T09:54:05.142Z,20.83
2018-03-29T09:56:32.694Z,18.13
2018-03-29T09:59:00.221Z,21.10
2018-03-29T10:01:28.535Z,23.10
2018-03-29T10:04:01.661Z,23.67
2018-03-29T10:06:29.210Z,23.50
2018-03-29T10:08:56.729Z,21.40
2018-03-29T10:11:24.273Z,26.07
2018-03-29T10:13:52.565Z,21.87
2018-03-29T10:16:20.115Z,26.90
2018-03-29T10:18:48.400Z,29.73
2018-03-29T10:21:15.947Z,42.30
2018-03-29T10:23:44.252Z,28.50
2018-03-29T10:26:11.802Z,20.27
2018-03-29T10:28:39.336Z,23.10
2018-03-29T10:31:07.659Z,21.50
2018-03-29T10:33:35.177Z,23.30
2018-03-29T10:36:03.493Z,22.53
2018-03-29T10:38:31.014Z,22.83
2018-03-29T10:40:59.313Z,18.00
2018-03-29T10:43:26.868Z,19.00
2018-03-29T10:45:55.161Z,22.23
2018-03-29T10:48:22.709Z,21.90
2018-03-29T10:50:50.996Z,24.03
2018-03-29T10:53:18.550Z,20.43
2018-03-29T10:55:46.073Z,19.60
2018-03-29T10:58:13.624Z,20.03
2018-03-29T11:00:41.157Z,20.53
2018-03-29T11:03:08.701Z,20.03
2018-03-29T11:05:36.227Z,21.57
2018-03-29T11:08:03.777Z,17.60
2018-03-29T11:10:31.305Z,19.03
2018-03-29T11:12:58.862Z,19.27
2018-03-29T11:15:26.394Z,19.13
2018-03-29T11:17:53.947Z,18.77
2018-03-29T11:20:21.479Z,18.50
2018-03-29T11:22:49.034Z,16.50
2018-03-29T11:25:16.554Z,16.17
2018-03-29T11:27:44.108Z,15.80
2018-03-29T11:30:11.673Z,15.07
2018-03-29T11:32:39.218Z,14.07
2018-03-29T11:35:06.738Z,16.57
2018-03-29T11:37:34.294Z,15.80
2018-03-29T11:40:01.822Z,18.50
2018-03-29T11:42:29.350Z,14.03
2018-03-29T11:44:56.889Z,13.40
2018-03-29T11:47:25.178Z,13.97
2018-03-29T11:49:53.494Z,15.60
2018-03-29T11:52:21.030Z,13.77
2018-03-29T11:54:48.571Z,18.30
2018-03-29T11:57:16.865Z,14.73
2018-03-29T11:59:44.418Z,13.80
2018-03-29T12:02:11.951Z,13.53
2018-03-29T12:04:39.497Z,12.57
2018-03-29T12:07:07.028Z,14.27
2018-03-29T12:09:34.573Z,13.77
2018-03-29T12:12:02.094Z,7.37
2018-03-29T12:14:29.636Z,10.67
2018-03-29T12:16:57.154Z,12.63
2018-03-29T12:19:24.707Z,10.00
2018-03-29T12:21:52.239Z,11.50
2018-03-29T12:24:19.786Z,10.70
2018-03-29T12:26:47.315Z,10.87
2018-03-29T12:29:14.858Z,10.67
2018-03-29T12:31:42.375Z,8.80
2018-03-29T12:34:09.921Z,13.23
2018-03-29T12:36:37.460Z,10.17
2018-03-29T12:39:05.775Z,10.03
2018-03-29T12:41:34.066Z,10.70
2018-03-29T12:44:02.374Z,12.60
2018-03-29T12:46:29.892Z,12.30
2018-03-29T12:48:57.454Z,14.27
2018-03-29T12:51:24.975Z,14.77
2018-03-29T12:53:52.509Z,15.20
2018-03-29T12:56:31.950Z,16.07
2018-03-29T12:58:59.476Z,17.77
2018-03-29T13:01:27.799Z,17.50
2018-03-29T13:03:55.331Z,19.87
2018-03-29T13:06:22.911Z,19.70
2018-03-29T13:08:50.497Z,21.50
2018-03-29T13:11:18.018Z,23.10
2018-03-29T13:13:45.542Z,18.97
2018-03-29T13:16:13.081Z,17.97
2018-03-29T13:18:40.650Z,24.80
2018-03-29T13:21:08.225Z,20.63
2018-03-29T13:23:35.749Z,22.03
2018-03-29T13:26:03.299Z,19.57
2018-03-29T13:28:30.828Z,19.10
2018-03-29T13:30:59.149Z,20.30
2018-03-29T13:33:26.673Z,18.27
2018-03-29T13:35:54.993Z,21.47
2018-03-29T13:38:22.522Z,19.60
2018-03-29T13:40:50.078Z,16.23
2018-03-29T13:43:17.600Z,12.20
2018-03-29T13:45:45.123Z,9.03
2018-03-29T13:48:12.668Z,8.17
2018-03-29T13:50:40.190Z,9.60
2018-03-29T13:53:07.733Z,8.17
2018-03-29T13:55:35.259Z,8.63
2018-03-29T13:58:02.812Z,6.87
2018-03-29T14:00:30.341Z,8.43
2018-03-29T14:02:57.888Z,7.17
2018-03-29T14:05:25.405Z,7.37
2018-03-29T14:07:52.953Z,7.67
2018-03-29T14:10:20.477Z,7.53
2018-03-29T14:12:48.022Z,7.37
2018-03-29T14:15:15.545Z,6.77
2018-03-29T14:17:43.094Z,8.00
2018-03-29T14:20:10.613Z,8.03
2018-03-29T14:22:38.197Z,8.47
2018-03-29T14:25:05.726Z,10.73
2018-03-29T14:27:33.265Z,10.27
2018-03-29T14:30:00.854Z,11.00
2018-03-29T14:32:28.365Z,8.50
2018-03-29T14:34:55.885Z,10.27
2018-03-29T14:37:23.451Z,9.50
2018-03-29T14:39:51.738Z,8.47
2018-03-29T14:42:20.117Z,8.70
2018-03-29T14:44:48.396Z,8.13
2018-03-29T14:47:15.904Z,6.90
2018-03-29T14:49:43.449Z,7.13
2018-03-29T14:52:10.970Z,6.80
2018-03-29T14:54:39.281Z,8.60
2018-03-29T14:57:06.797Z,7.03
2018-03-29T14:59:35.103Z,7.50
2018-03-29T15:02:02.626Z,7.70
2018-03-29T15:04:30.942Z,7.20
2018-03-29T15:06:58.457Z,6.93
2018-03-29T15:09:26.007Z,9.73
2018-03-29T15:11:53.550Z,10.33
2018-03-29T15:14:21.106Z,11.70
2018-03-29T15:16:48.628Z,12.63
2018-03-29T15:19:16.182Z,13.43
2018-03-29T15:21:44.527Z,13.30
2018-03-29T15:24:12.038Z,12.40
2018-03-29T15:26:39.553Z,10.80
2018-03-29T15:29:07.119Z,11.70
2018-03-29T15:31:34.657Z,15.33
2018-03-29T15:34:02.211Z,12.80
2018-03-29T15:36:29.737Z,11.43
2018-03-29T15:38:57.297Z,16.57
2018-03-29T15:41:24.817Z,12.87
2018-03-29T15:43:52.382Z,13.13
2018-03-29T15:46:19.913Z,11.87
2018-03-29T15:48:47.446Z,12.57
2018-03-29T15:51:14.999Z,14.77
2018-03-29T15:53:42.526Z,12.97
2018-03-29T15:56:10.846Z,10.53
2018-03-29T15:58:38.371Z,10.90
2018-03-29T16:01:06.690Z,11.57
2018-03-29T16:03:34.226Z,12.27
2018-03-29T16:06:01.777Z,11.73
2018-03-29T16:08:29.298Z,11.80
2018-03-29T16:10:56.853Z,11.03
2018-03-29T16:13:24.383Z,9.37
2018-03-29T16:15:51.934Z,9.37
2018-03-29T16:18:19.462Z,10.23
2018-03-29T16:20:47.779Z,10.73
2018-03-29T16:23:15.309Z,9.80
2018-03-29T16:25:43.626Z,9.93
2018-03-29T16:28:11.157Z,10.23
2018-03-29T16:30:38.701Z,8.97
2018-03-29T16:33:06.994Z,8.73
2018-03-29T16:35:34.550Z,10.30
2018-03-29T16:38:02.842Z,9.37
2018-03-29T16:40:30.385Z,10.93
2018-03-29T16:42:58.669Z,9.00
2018-03-29T16:45:26.976Z,8.97
2018-03-29T16:47:54.494Z,7.23
2018-03-29T16:50:22.801Z,7.80
2018-03-29T16:52:50.334Z,8.30
2018-03-29T16:55:18.630Z,9.07
2018-03-29T16:57:46.181Z,9.17
2018-03-29T17:00:14.461Z,9.10
2018-03-29T17:02:42.773Z,10.00
2018-03-29T17:05:10.350Z,10.50
2018-03-29T17:07:37.948Z,9.47
2018-03-29T17:10:06.222Z,8.73
2018-03-29T17:12:34.534Z,11.47
2018-03-29T17:15:02.059Z,10.73
2018-03-29T17:17:29.600Z,12.10
2018-03-29T17:19:57.110Z,9.27
2018-03-29T17:22:24.651Z,10.43
2018-03-29T17:24:52.938Z,10.57
2018-03-29T17:27:21.246Z,12.40
2018-03-29T17:29:48.767Z,10.43
2018-03-29T17:32:16.310Z,11.30
2018-03-29T17:34:43.829Z,11.57
2018-03-29T17:37:11.379Z,10.77
2018-03-29T17:39:38.897Z,14.13
2018-03-29T17:42:06.454Z,13.77
2018-03-29T17:44:33.983Z,13.50
2018-03-29T17:47:01.524Z,13.23
2018-03-29T17:49:29.045Z,15.17
2018-03-29T17:51:57.362Z,10.23
2018-03-29T17:54:24.881Z,10.53
2018-03-29T17:56:53.193Z,10.57
2018-03-29T17:59:20.715Z,13.13
2018-03-29T18:01:49.013Z,12.60
2018-03-29T18:04:16.560Z,12.93
2018-03-29T18:06:44.846Z,15.27
2018-03-29T18:09:12.401Z,14.93
2018-03-29T18:11:40.689Z,12.67
2018-03-29T18:14:08.239Z,12.97
2018-03-29T18:16:36.526Z,12.00
2018-03-29T18:19:04.080Z,12.60
2018-03-29T18:21:32.362Z,12.73
2018-03-29T18:23:59.913Z,11.60
2018-03-29T18:26:27.433Z,13.17
2018-03-29T18:28:54.986Z,13.60
2018-03-29T18:31:22.514Z,12.67
2018-03-29T18:33:50.076Z,13.13
2018-03-29T18:36:17.597Z,15.50
2018-03-29T18:38:45.146Z,13.03
2018-03-29T18:41:12.671Z,14.23
2018-03-29T18:43:40.233Z,15.53
2018-03-29T18:46:07.757Z,13.53
2018-03-29T18:48:36.074Z,14.00
2018-03-29T18:51:03.603Z,15.53
2018-03-29T18:53:31.905Z,14.43
2018-03-29T18:55:59.421Z,15.67
2018-03-29T18:58:27.750Z,14.40
2018-03-29T19:00:55.264Z,15.50
2018-03-29T19:03:23.555Z,14.37
2018-03-29T19:05:51.110Z,15.07
2018-03-29T19:08:19.400Z,15.10
2018-03-29T19:10:46.950Z,16.33
2018-03-29T19:13:15.251Z,16.00
2018-03-29T19:15:42.801Z,20.40
2018-03-29T19:18:10.335Z,26.60
2018-03-29T19:20:38.677Z,25.40
2018-03-29T19:23:06.203Z,23.50
2018-03-29T19:25:33.758Z,22.73
2018-03-29T19:28:01.283Z,17.50
2018-03-29T19:30:28.825Z,14.23
2018-03-29T19:32:57.113Z,17.90
2018-03-29T19:35:24.655Z,14.67
2018-03-29T19:37:52.176Z,16.70
2018-03-29T19:40:19.720Z,16.03
2018-03-29T19:42:48.018Z,18.20
2018-03-29T19:45:15.569Z,13.87
2018-03-29T19:47:43.094Z,14.93
2018-03-29T19:50:10.621Z,15.37
2018-03-29T19:52:38.224Z,16.77
2018-03-29T19:55:05.706Z,17.13
2018-03-29T19:57:33.257Z,17.37
2018-03-29T20:00:01.546Z,17.40
2018-03-29T20:02:29.105Z,17.30
2018-03-29T20:04:57.385Z,15.57
2018-03-29T20:07:24.931Z,16.30
2018-03-29T20:09:53.226Z,19.00
2018-03-29T20:12:20.774Z,19.10
2018-03-29T20:14:48.301Z,20.93
2018-03-29T20:17:15.849Z,19.50
2018-03-29T20:19:43.370Z,20.53
2018-03-29T20:22:10.929Z,21.77
2018-03-29T20:24:38.461Z,20.07
2018-03-29T20:27:06.009Z,21.73
2018-03-29T20:29:33.537Z,22.50
2018-03-29T20:32:01.081Z,20.73
2018-03-29T20:34:28.610Z,20.57
2018-03-29T20:36:56.950Z,19.40
2018-03-29T20:39:24.465Z,19.67
2018-03-29T20:41:52.783Z,21.47
2018-03-29T20:44:20.298Z,24.20
2018-03-29T20:46:48.621Z,19.40
2018-03-29T20:49:16.158Z,23.03
2018-03-29T20:51:43.710Z,20.30
2018-03-29T20:54:11.246Z,21.83
2018-03-29T20:56:39.534Z,20.00
2018-03-29T20:59:07.845Z,18.90
2018-03-29T21:01:35.366Z,20.90
2018-03-29T21:04:02.918Z,19.83
2018-03-29T21:06:31.209Z,18.83
2018-03-29T21:08:59.526Z,19.60
2018-03-29T21:11:27.045Z,18.43
2018-03-29T21:13:55.354Z,19.83
2018-03-29T21:16:22.888Z,16.93
2018-03-29T21:18:51.208Z,19.97
2018-03-29T21:21:18.738Z,20.50
2018-03-29T21:23:46.287Z,21.67
2018-03-29T21:26:14.577Z,19.97
2018-03-29T21:28:42.130Z,21.03
2018-03-29T21:31:10.417Z,20.27
2018-03-29T21:33:37.976Z,20.83
2018-03-29T21:36:05.521Z,19.97
2018-03-29T21:38:33.837Z,22.10
2018-03-29T21:41:01.357Z,21.77
2018-03-29T21:43:29.680Z,22.40
2018-03-29T21:45:57.201Z,19.87
2018-03-29T21:48:25.526Z,20.07
2018-03-29T21:50:53.062Z,19.80
2018-03-29T21:53:20.622Z,21.20
2018-03-29T21:55:48.150Z,19.63
2018-03-29T21:58:16.474Z,19.73
2018-03-29T22:00:43.989Z,21.53
2018-03-29T22:03:12.278Z,20.70
2018-03-29T22:05:40.589Z,19.83
2018-03-29T22:08:08.108Z,22.73
2018-03-29T22:10:36.454Z,19.83
2018-03-29T22:13:03.977Z,20.20
2018-03-29T22:15:31.530Z,22.20
2018-03-29T22:17:59.053Z,21.07
2018-03-29T22:20:26.596Z,21.00
2018-03-29T22:22:54.122Z,19.93
2018-03-29T22:25:21.667Z,17.40
2018-03-29T22:27:49.195Z,19.63
2018-03-29T22:30:16.746Z,19.77
2018-03-29T22:32:44.269Z,16.57
2018-03-29T22:35:11.811Z,18.30
2018-03-29T22:37:39.343Z,19.43
2018-03-29T22:40:07.664Z,18.07
2018-03-29T22:42:35.189Z,15.80
2018-03-29T22:45:03.511Z,19.80
2018-03-29T22:47:31.042Z,18.27
2018-03-29T22:49:58.593Z,19.57
2018-03-29T22:52:26.882Z,18.73
2018-03-29T22:54:54.434Z,21.17
2018-03-29T22:57:22.717Z,19.93
2018-03-29T22:59:50.262Z,19.27
2018-03-29T23:02:18.560Z,17.87
2018-03-29T23:04:46.082Z,18.73
2018-03-29T23:07:13.630Z,17.87
2018-03-29T23:09:41.158Z,21.93
2018-03-29T23:12:08.710Z,18.63
2018-03-29T23:14:36.233Z,21.20
2018-03-29T23:17:04.554Z,21.87
2018-03-29T23:19:32.090Z,21.00
2018-03-29T23:21:59.646Z,21.77
2018-03-29T23:24:27.166Z,22.30
2018-03-29T23:26:54.709Z,19.83
2018-03-29T23:29:22.238Z,20.70
2018-03-29T23:31:49.789Z,20.83
2018-03-29T23:34:17.314Z,19.40
2018-03-29T23:36:44.866Z,22.83
2018-03-29T23:39:12.395Z,19.30
2018-03-29T23:41:39.951Z,20.33
2018-03-29T23:44:07.478Z,21.90
2018-03-29T23:46:35.796Z,20.60
2018-03-29T23:49:03.328Z,20.43
2018-03-29T23:51:30.877Z,22.40
2018-03-29T23:53:59.165Z,20.43
2018-03-29T23:56:26.721Z,20.33
2018-03-29T23:58:55.015Z,19.57
